createdAt,value
2023-02-23T00:02:37.736Z,11.87
2023-02-23T00:05:43.759Z,17.47
2023-02-23T00:08:49.949Z,11.20
2023-02-23T00:11:58.571Z,12.40
2023-02-23T00:15:07.779Z,19.13
2023-02-23T00:18:14.391Z,12.53
2023-02-23T00:21:23.067Z,12.90
2023-02-23T00:24:29.952Z,17.57
2023-02-23T00:27:38.954Z,20.20
2023-02-23T00:30:46.915Z,11.97
2023-02-23T00:33:54.472Z,17.87
2023-02-23T00:37:00.731Z,18.33
2023-02-23T00:40:13.952Z,15.20
2023-02-23T00:43:23.885Z,17.87
2023-02-23T00:46:32.165Z,10.90
2023-02-23T00:49:38.444Z,11.50
2023-02-23T00:52:45.499Z,12.60
2023-02-23T00:55:51.946Z,7.60
2023-02-23T00:58:58.636Z,16.43
2023-02-23T01:02:06.848Z,8.00
2023-02-23T01:05:13.926Z,5.93
2023-02-23T01:08:20.547Z,8.20
2023-02-23T01:11:31.109Z,7.63
2023-02-23T01:14:38.871Z,7.37
2023-02-23T01:17:46.983Z,10.23
2023-02-23T01:20:53.235Z,13.90
2023-02-23T01:23:59.892Z,12.77
2023-02-23T01:27:06.350Z,12.10
2023-02-23T01:30:15.829Z,10.83
2023-02-23T01:33:23.830Z,11.43
2023-02-23T01:36:31.411Z,14.77
2023-02-23T01:39:37.794Z,10.87
2023-02-23T01:42:47.668Z,13.27
2023-02-23T01:45:56.591Z,12.60
2023-02-23T01:49:06.060Z,9.00
2023-02-23T01:52:16.169Z,9.37
2023-02-23T01:55:25.965Z,9.17
2023-02-23T01:58:33.846Z,12.73
2023-02-23T02:01:42.312Z,7.80
2023-02-23T02:04:52.540Z,11.33
2023-02-23T02:07:59.908Z,8.47
2023-02-23T02:11:26.045Z,13.07
2023-02-23T02:14:33.498Z,10.53
2023-02-23T02:17:47.378Z,15.27
2023-02-23T02:21:44.877Z,15.20
2023-02-23T02:25:25.428Z,8.50
2023-02-23T02:28:49.934Z,7.53
2023-02-23T02:32:39.597Z,4.03
2023-02-23T02:36:12.161Z,32.50
2023-02-23T02:39:35.086Z,41.97
2023-02-23T02:42:52.809Z,19.93
2023-02-23T02:46:05.971Z,7.50
2023-02-23T02:49:20.879Z,9.10
2023-02-23T02:52:33.401Z,16.67
2023-02-23T02:55:44.056Z,10.00
2023-02-23T02:58:51.353Z,12.80
2023-02-23T03:02:16.134Z,10.20
2023-02-23T03:05:44.335Z,23.33
2023-02-23T03:09:18.712Z,9.50
2023-02-23T03:12:52.023Z,25.50
2023-02-23T03:16:22.753Z,42.20
2023-02-23T03:19:49.797Z,22.57
2023-02-23T03:23:19.153Z,16.40
2023-02-23T03:26:49.542Z,13.87
2023-02-23T03:30:20.558Z,27.63
2023-02-23T03:33:54.587Z,23.37
2023-02-23T03:37:24.610Z,14.10
2023-02-23T03:40:53.680Z,13.07
2023-02-23T03:44:20.319Z,37.07
2023-02-23T03:47:50.639Z,32.07
2023-02-23T03:51:18.228Z,10.83
2023-02-23T03:54:47.598Z,9.10
2023-02-23T03:58:14.365Z,6.10
2023-02-23T04:01:40.213Z,17.27
2023-02-23T04:05:07.265Z,18.80
2023-02-23T04:08:33.390Z,28.27
2023-02-23T04:12:04.888Z,26.70
2023-02-23T04:15:15.497Z,28.93
2023-02-23T04:18:25.147Z,52.33
2023-02-23T04:21:32.928Z,46.17
2023-02-23T04:24:39.384Z,27.43
2023-02-23T04:27:45.596Z,44.67
2023-02-23T04:30:52.563Z,79.90
2023-02-23T04:33:58.932Z,44.03
2023-02-23T04:37:06.688Z,49.10
2023-02-23T04:40:14.067Z,21.80
2023-02-23T04:43:20.612Z,45.63
2023-02-23T04:46:27.202Z,41.57
2023-02-23T04:49:33.454Z,48.47
2023-02-23T04:52:41.126Z,63.77
2023-02-23T04:55:47.431Z,88.77
2023-02-23T04:58:54.076Z,45.33
2023-02-23T05:02:00.646Z,43.27
2023-02-23T05:05:09.288Z,45.60
2023-02-23T05:08:17.229Z,49.40
2023-02-23T05:11:25.096Z,88.37
2023-02-23T05:14:31.781Z,43.60
2023-02-23T05:17:41.389Z,27.07
2023-02-23T05:20:47.821Z,18.97
2023-02-23T05:23:55.249Z,29.67
2023-02-23T05:27:01.523Z,19.00
2023-02-23T05:30:10.121Z,10.73
2023-02-23T05:33:18.277Z,10.70
2023-02-23T05:36:24.535Z,9.20
2023-02-23T05:39:32.737Z,11.70
2023-02-23T05:42:39.386Z,10.77
2023-02-23T05:45:46.301Z,19.13
2023-02-23T05:48:53.015Z,8.70
2023-02-23T05:51:59.513Z,13.53
2023-02-23T05:55:08.421Z,44.37
2023-02-23T05:58:14.697Z,28.67
2023-02-23T06:01:21.827Z,29.00
2023-02-23T06:04:28.237Z,32.10
2023-02-23T06:07:34.794Z,38.13
2023-02-23T06:10:42.475Z,54.53
2023-02-23T06:13:48.816Z,56.20
2023-02-23T06:16:54.852Z,68.93
2023-02-23T06:20:02.247Z,55.60
2023-02-23T06:23:08.667Z,27.17
2023-02-23T06:26:16.698Z,48.50
2023-02-23T06:29:23.262Z,39.37
2023-02-23T06:32:30.055Z,81.30
2023-02-23T06:35:37.078Z,79.67
2023-02-23T06:38:44.973Z,145.00
2023-02-23T06:41:52.761Z,164.93
2023-02-23T06:44:59.168Z,105.77
2023-02-23T06:48:05.800Z,91.07
2023-02-23T06:51:12.462Z,30.07
2023-02-23T06:54:18.915Z,26.97
2023-02-23T06:57:26.510Z,29.07
2023-02-23T07:00:32.914Z,25.93
2023-02-23T07:03:39.090Z,42.00
2023-02-23T07:06:45.384Z,42.30
2023-02-23T07:09:51.738Z,32.43
2023-02-23T07:12:59.768Z,19.60
2023-02-23T07:16:06.899Z,40.93
2023-02-23T07:19:13.283Z,33.90
2023-02-23T07:22:19.594Z,27.80
2023-02-23T07:25:26.125Z,21.33
2023-02-23T07:28:34.145Z,24.33
2023-02-23T07:31:40.978Z,25.50
2023-02-23T07:34:47.964Z,20.03
2023-02-23T07:37:55.973Z,19.23
2023-02-23T07:41:02.379Z,20.23
2023-02-23T07:44:10.196Z,13.53
2023-02-23T07:47:16.785Z,14.80
2023-02-23T07:50:23.581Z,21.87
2023-02-23T07:53:29.717Z,13.70
2023-02-23T07:56:36.522Z,16.27
2023-02-23T07:59:44.496Z,17.93
2023-02-23T08:02:50.854Z,17.87
2023-02-23T08:05:57.507Z,17.17
2023-02-23T08:09:04.940Z,17.03
2023-02-23T08:12:11.808Z,14.10
2023-02-23T08:15:20.051Z,16.43
2023-02-23T08:18:27.862Z,23.73
2023-02-23T08:21:34.068Z,25.10
2023-02-23T08:24:40.221Z,14.00
2023-02-23T08:27:46.391Z,18.63
2023-02-23T08:30:53.783Z,13.73
2023-02-23T08:34:00.243Z,18.47
2023-02-23T08:37:06.404Z,19.53
2023-02-23T08:40:15.591Z,11.83
2023-02-23T08:43:21.792Z,14.23
2023-02-23T08:46:29.371Z,17.10
2023-02-23T08:49:35.907Z,17.67
2023-02-23T08:52:42.704Z,18.40
2023-02-23T08:55:48.839Z,16.63
2023-02-23T08:58:55.265Z,15.50
2023-02-23T09:02:02.842Z,18.20
2023-02-23T09:05:10.304Z,8.80
2023-02-23T09:08:17.395Z,8.47
2023-02-23T09:11:24.108Z,8.97
2023-02-23T09:14:30.571Z,8.07
2023-02-23T09:17:38.638Z,8.57
2023-02-23T09:20:46.456Z,8.33
2023-02-23T09:23:56.193Z,12.43
2023-02-23T09:27:02.688Z,6.70
2023-02-23T09:30:10.132Z,11.13
2023-02-23T09:33:18.525Z,11.00
2023-02-23T09:36:26.747Z,11.50
2023-02-23T09:39:38.430Z,10.80
2023-02-23T09:42:54.305Z,8.27
2023-02-23T09:46:13.553Z,8.20
2023-02-23T09:49:26.394Z,8.37
2023-02-23T09:52:42.487Z,12.90
2023-02-23T09:55:49.849Z,10.17
2023-02-23T09:58:56.243Z,9.83
2023-02-23T10:02:10.619Z,6.50
2023-02-23T10:05:18.974Z,9.33
2023-02-23T10:08:50.117Z,8.50
2023-02-23T10:12:07.642Z,7.47
2023-02-23T10:15:26.570Z,8.37
2023-02-23T10:18:46.596Z,8.70
2023-02-23T10:22:02.503Z,5.10
2023-02-23T10:25:14.080Z,7.87
2023-02-23T10:28:23.341Z,7.30
2023-02-23T10:31:35.663Z,4.90
2023-02-23T10:34:43.862Z,8.10
2023-02-23T10:37:53.181Z,10.13
2023-02-23T10:41:01.195Z,8.13
2023-02-23T10:44:18.317Z,5.63
2023-02-23T10:47:27.708Z,15.77
2023-02-23T10:50:37.485Z,10.43
2023-02-23T10:53:45.456Z,6.13
2023-02-23T10:56:53.883Z,7.73
2023-02-23T11:00:27.912Z,7.67
2023-02-23T11:03:37.975Z,6.97
2023-02-23T11:06:44.646Z,7.40
2023-02-23T11:09:53.016Z,4.93
2023-02-23T11:12:59.371Z,8.20
2023-02-23T11:16:10.412Z,4.00
2023-02-23T11:19:25.601Z,4.60
2023-02-23T11:22:36.262Z,4.20
2023-02-23T11:25:48.104Z,4.07
2023-02-23T11:28:59.431Z,4.60
2023-02-23T11:32:10.564Z,5.33
2023-02-23T11:35:29.929Z,3.93
2023-02-23T11:38:36.348Z,3.87
2023-02-23T11:41:44.257Z,4.70
2023-02-23T11:45:03.323Z,3.57
2023-02-23T11:48:22.387Z,3.53
2023-02-23T11:51:31.783Z,6.90
2023-02-23T11:54:38.883Z,6.80
2023-02-23T11:57:49.555Z,5.00
2023-02-23T12:00:57.667Z,4.03
2023-02-23T12:04:04.520Z,3.43
2023-02-23T12:07:39.071Z,2.93
2023-02-23T12:10:48.950Z,3.40
2023-02-23T12:14:04.152Z,7.30
2023-02-23T12:17:16.176Z,4.20
2023-02-23T12:20:26.541Z,3.20
2023-02-23T12:23:38.117Z,4.03
2023-02-23T12:26:50.317Z,3.97
2023-02-23T12:30:08.350Z,5.23
2023-02-23T12:33:20.173Z,3.50
2023-02-23T12:36:33.437Z,6.27
2023-02-23T12:39:44.603Z,4.73
2023-02-23T12:43:02.279Z,11.47
2023-02-23T12:46:15.232Z,4.43
2023-02-23T12:49:29.583Z,4.20
2023-02-23T12:52:40.047Z,6.27
2023-02-23T12:56:06.457Z,4.50
2023-02-23T12:59:50.692Z,3.93
2023-02-23T13:03:18.299Z,4.50
2023-02-23T13:06:36.878Z,6.60
2023-02-23T13:09:55.056Z,5.10
2023-02-23T13:13:16.410Z,3.43
2023-02-23T13:16:29.823Z,6.27
2023-02-23T13:19:43.832Z,7.23
2023-02-23T13:22:56.371Z,2.97
2023-02-23T13:26:13.153Z,4.33
2023-02-23T13:29:32.264Z,4.70
2023-02-23T13:32:39.043Z,5.10
2023-02-23T13:35:47.026Z,4.20
2023-02-23T13:39:18.603Z,3.77
2023-02-23T13:42:38.175Z,3.67
2023-02-23T13:45:57.693Z,5.60
2023-02-23T13:49:15.198Z,4.13
2023-02-23T13:52:29.638Z,14.23
2023-02-23T13:55:49.917Z,5.33
2023-02-23T13:59:01.001Z,5.17
2023-02-23T14:02:26.080Z,5.90
2023-02-23T14:05:34.095Z,8.27
2023-02-23T14:08:45.214Z,28.87
2023-02-23T14:11:53.878Z,16.30
2023-02-23T14:15:41.489Z,41.73
2023-02-23T14:19:32.128Z,9.83
2023-02-23T14:22:58.808Z,7.47
2023-02-23T14:26:16.674Z,6.63
2023-02-23T14:29:33.131Z,8.37
2023-02-23T14:32:41.496Z,5.63
2023-02-23T14:35:50.896Z,7.77
2023-02-23T14:39:02.216Z,6.80
2023-02-23T14:42:09.956Z,8.13
2023-02-23T14:45:27.521Z,5.70
2023-02-23T14:48:36.732Z,7.77
2023-02-23T14:51:48.668Z,5.57
2023-02-23T14:55:15.740Z,5.43
2023-02-23T14:58:28.205Z,8.77
2023-02-23T15:01:37.869Z,9.17
2023-02-23T15:04:44.295Z,12.67
2023-02-23T15:07:52.091Z,8.33
2023-02-23T15:11:03.153Z,8.50
2023-02-23T15:14:26.903Z,8.30
2023-02-23T15:17:35.689Z,10.80
2023-02-23T15:20:44.179Z,12.60
2023-02-23T15:23:53.139Z,12.10
2023-02-23T15:27:01.349Z,9.77
2023-02-23T15:30:23.554Z,97.07
2023-02-23T15:33:30.464Z,16.30
2023-02-23T15:36:38.907Z,11.87
2023-02-23T15:39:53.311Z,8.07
2023-02-23T15:43:01.766Z,7.53
2023-02-23T15:46:09.605Z,6.80
2023-02-23T15:49:17.520Z,18.10
2023-02-23T15:52:26.380Z,17.23
2023-02-23T15:55:36.669Z,11.03
2023-02-23T15:58:56.390Z,16.43
2023-02-23T16:02:14.852Z,8.40
2023-02-23T16:05:23.269Z,15.17
2023-02-23T16:08:30.909Z,10.17
2023-02-23T16:11:38.172Z,12.17
2023-02-23T16:14:48.031Z,10.60
2023-02-23T16:17:59.695Z,11.17
2023-02-23T16:21:07.198Z,7.00
2023-02-23T16:24:22.710Z,8.70
2023-02-23T16:27:30.902Z,10.23
2023-02-23T16:30:43.310Z,9.33
2023-02-23T16:33:57.133Z,8.90
2023-02-23T16:37:05.511Z,9.53
2023-02-23T16:40:14.758Z,12.93
2023-02-23T16:43:21.686Z,10.87
2023-02-23T16:46:31.067Z,18.23
2023-02-23T16:49:38.920Z,11.23
2023-02-23T16:52:47.337Z,22.93
2023-02-23T16:55:57.256Z,14.27
2023-02-23T16:59:05.342Z,15.63
2023-02-23T17:02:14.375Z,13.83
2023-02-23T17:05:24.327Z,13.17
2023-02-23T17:08:31.871Z,11.03
2023-02-23T17:11:38.467Z,11.87
2023-02-23T17:14:44.829Z,37.23
2023-02-23T17:17:53.430Z,24.83
2023-02-23T17:21:04.882Z,31.17
2023-02-23T17:24:11.301Z,24.30
2023-02-23T17:27:17.398Z,19.20
2023-02-23T17:30:24.964Z,18.53
2023-02-23T17:33:33.791Z,21.57
2023-02-23T17:36:41.453Z,20.37
2023-02-23T17:39:49.733Z,20.67
2023-02-23T17:42:56.913Z,14.23
2023-02-23T17:46:03.341Z,14.90
2023-02-23T17:49:09.732Z,14.20
2023-02-23T17:52:17.174Z,17.23
2023-02-23T17:55:24.458Z,17.27
2023-02-23T17:58:31.179Z,12.03
2023-02-23T18:01:37.762Z,13.80
2023-02-23T18:04:45.017Z,18.97
2023-02-23T19:22:57.729Z,21.13
2023-02-23T19:26:05.607Z,11.10
2023-02-23T19:29:11.617Z,16.13
2023-02-23T19:32:18.213Z,12.37
2023-02-23T19:35:24.597Z,17.03
2023-02-23T19:38:32.449Z,15.60
2023-02-23T19:41:39.990Z,17.10
2023-02-23T19:44:46.315Z,12.43
2023-02-23T19:47:53.911Z,13.67
2023-02-23T19:51:00.196Z,9.70
2023-02-23T19:54:08.418Z,15.40
2023-02-23T19:57:14.633Z,11.30
2023-02-23T20:00:21.252Z,15.70
2023-02-23T20:03:28.731Z,11.90
2023-02-23T20:06:39.926Z,10.93
2023-02-23T20:09:47.493Z,19.73
2023-02-23T20:12:54.375Z,10.00
2023-02-23T20:16:04.151Z,12.57
2023-02-23T20:19:11.864Z,15.63
2023-02-23T20:22:18.416Z,10.87
2023-02-23T20:25:27.330Z,14.47
2023-02-23T20:28:34.079Z,17.60
2023-02-23T20:31:44.808Z,12.83
2023-02-23T20:34:51.967Z,11.50
2023-02-23T20:41:24.224Z,14.47
2023-02-23T20:44:33.083Z,10.67
2023-02-23T20:47:39.872Z,13.10
2023-02-23T20:50:46.169Z,11.20
2023-02-23T20:53:52.683Z,13.60
2023-02-23T20:57:07.599Z,9.93
2023-02-23T21:00:20.368Z,9.67
2023-02-23T21:03:26.893Z,9.17
2023-02-23T21:06:34.332Z,10.33
2023-02-23T21:09:41.334Z,10.23
2023-02-23T21:12:49.340Z,9.77
2023-02-23T21:16:01.305Z,16.00
2023-02-23T21:19:08.005Z,13.40
2023-02-23T21:22:16.514Z,9.77
2023-02-23T21:25:25.234Z,15.17
2023-02-23T21:28:32.938Z,22.60
2023-02-23T21:31:40.208Z,15.60
2023-02-23T21:34:47.166Z,13.77
2023-02-23T21:37:54.052Z,16.17
2023-02-23T21:41:19.125Z,32.30
2023-02-23T21:44:26.902Z,22.37
2023-02-23T21:47:36.215Z,22.53
2023-02-23T21:50:42.790Z,12.10
2023-02-23T21:53:49.393Z,11.43
2023-02-23T21:56:55.830Z,22.53
2023-02-23T22:00:03.380Z,12.17
2023-02-23T22:03:09.890Z,11.40
2023-02-23T22:06:18.442Z,16.13
2023-02-23T22:09:25.002Z,9.60
2023-02-23T22:12:32.604Z,14.63
2023-02-23T22:15:40.464Z,11.00
2023-02-23T22:18:47.477Z,11.77
2023-02-23T22:21:55.224Z,9.63
2023-02-23T22:25:01.556Z,10.70
2023-02-23T22:28:10.818Z,12.77
2023-02-23T22:31:18.976Z,12.63
2023-02-23T22:34:25.798Z,8.83
2023-02-23T22:37:32.610Z,9.80
2023-02-23T22:40:42.272Z,12.77
2023-02-23T22:43:48.739Z,11.17
2023-02-23T22:46:56.833Z,9.30
2023-02-23T22:50:06.296Z,11.97
2023-02-23T22:53:12.950Z,11.03
2023-02-23T22:56:20.144Z,10.57
2023-02-23T22:59:28.636Z,11.07
2023-02-23T23:02:36.860Z,13.23
2023-02-23T23:05:51.189Z,14.83
2023-02-23T23:08:58.342Z,13.60
2023-02-23T23:12:04.955Z,11.97
2023-02-23T23:15:15.031Z,12.47
2023-02-23T23:18:24.560Z,16.67
2023-02-23T23:21:32.904Z,13.70
2023-02-23T23:24:39.200Z,13.90
2023-02-23T23:27:46.130Z,12.27
2023-02-23T23:30:52.512Z,12.07
2023-02-23T23:34:02.492Z,13.97
2023-02-23T23:37:10.907Z,12.03
2023-02-23T23:40:17.539Z,16.13
2023-02-23T23:43:23.942Z,15.47
2023-02-23T23:46:34.168Z,10.73
2023-02-23T23:49:42.518Z,13.97
2023-02-23T23:52:50.582Z,11.73
2023-02-23T23:55:57.438Z,22.20
2023-02-23T23:59:08.277Z,15.83
